Time;durP1;ratioP1;P1;durP2;ratioP2;P2;SDS_P1;SDS_P2;PMS_P1;PMS_P2;Temp;Humidity;BMP_temperature;BMP_pressure;BME280_temperature;BME280_humidity;BME280_pressure;Samples;Min_cycle;Max_cycle;Signal;HPM_P1;HPM_P2
2023/11/27 08:33:31;;;;;;;16.7;9.2;;;;;;;0.15;79.61;;;;;
2023/11/27 08:43:31;;;;;;;16.7;9.2;;;;;;;0.42;79.13;;;;;
2023/11/27 08:54:32;;;;;;;14.9;10.6;;;;;;;0.37;78.81;;;;;
2023/11/27 09:05:31;;;;;;;14.9;10.6;;;;;;;0.13;78.37;;;;;
2023/11/27 09:16:31;;;;;;;14.9;10.6;;;;;;;0.54;76.29;;;;;
2023/11/27 09:27:30;;;;;;;13.2;8;;;;;;;0.57;73.92;;;;;
2023/11/27 09:37:32;;;;;;;13.2;8;;;;;;;0.98;72.8;;;;;
2023/11/27 09:47:31;;;;;;;13.2;8;;;;;;;0.79;71.62;;;;;
2023/11/27 09:58:31;;;;;;;10.6;6.7;;;;;;;1.15;69.99;;;;;
2023/11/27 10:08:31;;;;;;;10.6;6.7;;;;;;;1.42;70.24;;;;;
2023/11/27 10:18:31;;;;;;;10.6;6.7;;;;;;;1.78;67.55;;;;;
2023/11/27 10:29:31;;;;;;;;;;;;;;;;;;;;;
2023/11/27 10:40:31;;;;;;;;;;;;;;;;;;;;;
2023/11/27 10:50:31;;;;;;;;;;;;;;;;;;;;;
2023/11/27 11:01:31;;;;;;;;;;;;;;;;;;;;;
2023/11/27 11:11:31;;;;;;;;;;;;;;;;;;;;;
2023/11/27 11:22:31;;;;;;;;;;;;;;;;;;;;;
2023/11/27 11:32:31;;;;;;;;;;;;;;;;;;;;;
2023/11/27 11:43:31;;;;;;;;;;;;;;;;;;;;;
2023/11/27 11:54:31;;;;;;;;;;;;;;;;;;;;;
2023/11/27 12:05:31;;;;;;;5.5;3.9;;;;;;;1.46;64.07;;;;;
2023/11/27 12:16:31;;;;;;;5.5;3.9;;;;;;;1.66;64.18;;;;;
2023/11/27 12:27:34;;;;;;;5.5;3.9;;;;;;;1.84;63.9;;;;;
2023/11/27 12:38:31;;;;;;;12;5.3;;;;;;;1.74;65.26;;;;;
2023/11/27 12:49:34;;;;;;;12;5.3;;;;;;;1.83;65.13;;;;;
2023/11/27 13:00:31;;;;;;;11;6.1;;;;;;;1.61;65.35;;;;;
2023/11/27 13:11:32;;;;;;;11;6.1;;;;;;;1.65;65.66;;;;;
2023/11/27 13:21:32;;;;;;;11;6.1;;;;;;;1.38;65.79;;;;;
2023/11/27 13:31:33;;;;;;;11.4;6.2;;;;;;;0.92;66.93;;;;;
2023/11/27 13:42:32;;;;;;;11.4;6.2;;;;;;;0.61;68.34;;;;;
2023/11/27 13:53:34;;;;;;;11.4;6.2;;;;;;;0.28;70.51;;;;;
2023/11/27 14:03:34;;;;;;;13.4;6.7;;;;;;;0.1;70.31;;;;;
2023/11/27 14:14:32;;;;;;;13.4;6.7;;;;;;;-0.26;71.43;;;;;
2023/11/27 14:26:01;;;;;;;13.4;6.7;;;;;;;-0.65;71.88;;;;;
2023/11/27 14:35:32;;;;;;;16.6;7.6;;;;;;;-0.96;72.56;;;;;
2023/11/27 14:46:31;;;;;;;16.6;7.6;;;;;;;-1.28;74.65;;;;;
2023/11/27 14:56:32;;;;;;;16.6;7.6;;;;;;;-1.54;75.36;;;;;
2023/11/27 15:06:33;;;;;;;14.8;8.5;;;;;;;-1.73;75.94;;;;;
2023/11/27 15:16:31;;;;;;;14.8;8.5;;;;;;;-1.87;77.05;;;;;
2023/11/27 15:27:31;;;;;;;14.8;8.5;;;;;;;-1.87;78.17;;;;;
2023/11/27 15:37:31;;;;;;;24.5;14;;;;;;;-1.84;78.36;;;;;
2023/11/27 15:48:31;;;;;;;24.5;14;;;;;;;-1.83;80.71;;;;;
2023/11/27 15:58:31;;;;;;;24.5;14;;;;;;;-1.63;80.3;;;;;
2023/11/27 16:08:32;;;;;;;28.2;15.9;;;;;;;-1.44;79.51;;;;;
2023/11/27 16:19:31;;;;;;;28.2;15.9;;;;;;;-1.51;78.45;;;;;
2023/11/27 16:30:35;;;;;;;21.8;12.4;;;;;;;-1.69;77.93;;;;;
2023/11/27 16:40:35;;;;;;;21.8;12.4;;;;;;;-1.78;78.68;;;;;
2023/11/27 16:50:31;;;;;;;21.8;12.4;;;;;;;-1.86;78.98;;;;;
2023/11/27 17:00:31;;;;;;;33.8;18.2;;;;;;;-1.84;79.55;;;;;
2023/11/27 17:11:32;;;;;;;33.8;18.2;;;;;;;-1.82;80.13;;;;;
2023/11/27 17:22:31;;;;;;;33.8;18.2;;;;;;;-1.61;80.11;;;;;
2023/11/27 17:32:31;;;;;;;26.5;15.5;;;;;;;-1.33;79.75;;;;;
2023/11/27 17:43:31;;;;;;;26.5;15.5;;;;;;;-1.26;79.77;;;;;
2023/11/27 17:53:31;;;;;;;26.5;15.5;;;;;;;-1.2;79.64;;;;;
2023/11/27 18:04:31;;;;;;;29;16.5;;;;;;;-1.12;79.78;;;;;
2023/11/27 18:14:31;;;;;;;29;16.5;;;;;;;-0.99;79.08;;;;;
2023/11/27 18:25:31;;;;;;;29;16.5;;;;;;;-0.91;78.81;;;;;
2023/11/27 18:36:31;;;;;;;31.5;18.1;;;;;;;-0.84;78.77;;;;;
2023/11/27 18:46:31;;;;;;;31.5;18.1;;;;;;;-0.89;79.12;;;;;
2023/11/27 18:57:31;;;;;;;31.5;18.1;;;;;;;-0.7;78.74;;;;;
2023/11/27 19:07:31;;;;;;;31.1;17.7;;;;;;;-0.51;77.98;;;;;
2023/11/27 19:18:33;;;;;;;31.1;17.7;;;;;;;-0.67;78.38;;;;;
2023/11/27 19:28:34;;;;;;;31;17;;;;;;;-0.97;79.17;;;;;
2023/11/27 19:38:32;;;;;;;31;17;;;;;;;-0.85;78.72;;;;;
2023/11/27 19:48:31;;;;;;;31;17;;;;;;;-0.87;78.56;;;;;
2023/11/27 19:58:31;;;;;;;27;16.6;;;;;;;-0.84;78.61;;;;;
2023/11/27 20:08:31;;;;;;;27;16.6;;;;;;;-0.84;78.73;;;;;
2023/11/27 20:19:32;;;;;;;27;16.6;;;;;;;-0.94;78.95;;;;;
2023/11/27 20:30:31;;;;;;;36.2;18.4;;;;;;;-1.07;79.14;;;;;
2023/11/27 20:41:31;;;;;;;36.2;18.4;;;;;;;-1.21;79.62;;;;;
2023/11/27 20:51:31;;;;;;;36.2;18.4;;;;;;;-1.29;79.79;;;;;
2023/11/27 21:02:31;;;;;;;30.4;17.5;;;;;;;-1.28;79.82;;;;;
2023/11/27 21:12:31;;;;;;;30.4;17.5;;;;;;;-1.27;80.13;;;;;
2023/11/27 21:22:31;;;;;;;30.4;17.5;;;;;;;-1.13;80.08;;;;;
2023/11/27 21:32:31;;;;;;;32.1;18.3;;;;;;;-1.11;79.84;;;;;
2023/11/27 21:43:31;;;;;;;32.1;18.3;;;;;;;-1.35;81.32;;;;;
2023/11/27 21:53:31;;;;;;;32.1;18.3;;;;;;;-1.21;81.34;;;;;
2023/11/27 22:04:31;;;;;;;33.2;18.8;;;;;;;-0.99;81.2;;;;;
2023/11/27 22:14:31;;;;;;;33.2;18.8;;;;;;;-0.82;80.78;;;;;
2023/11/27 22:25:33;;;;;;;33.2;18.8;;;;;;;-0.81;80.16;;;;;
2023/11/27 22:36:31;;;;;;;34.4;19.3;;;;;;;-1.03;81.22;;;;;
2023/11/27 22:47:31;;;;;;;34.4;19.3;;;;;;;-0.87;81.01;;;;;
2023/11/27 22:57:31;;;;;;;34.4;19.3;;;;;;;-0.93;81.28;;;;;
2023/11/27 23:07:31;;;;;;;34.3;21.7;;;;;;;-1.05;82.39;;;;;
2023/11/27 23:18:31;;;;;;;34.3;21.7;;;;;;;-1.05;82.39;;;;;
2023/11/27 23:28:31;;;;;;;38.3;24.2;;;;;;;-1.06;82.42;;;;;
2023/11/27 23:38:31;;;;;;;38.3;24.2;;;;;;;-1.12;82.21;;;;;
2023/11/27 23:49:35;;;;;;;38.3;24.2;;;;;;;-1.21;82.63;;;;;
2023/11/27 23:59:31;;;;;;;36.5;23.7;;;;;;;-1.05;81.94;;;;;
